createdAt,value
2022-09-28T00:02:23.033Z,7.78
2022-09-28T00:04:50.702Z,7.47
2022-09-28T00:07:18.344Z,7.32
2022-09-28T00:09:45.958Z,7.45
2022-09-28T00:12:13.638Z,7.82
2022-09-28T00:14:42.919Z,8.27
2022-09-28T00:17:12.124Z,8.13
2022-09-28T00:19:41.203Z,8.43
2022-09-28T00:22:08.853Z,8.32
2022-09-28T00:24:36.488Z,8.27
2022-09-28T00:27:04.193Z,9.02
2022-09-28T00:29:33.280Z,8.70
2022-09-28T00:32:03.410Z,9.15
2022-09-28T00:34:33.230Z,9.02
2022-09-28T00:37:03.482Z,8.25
2022-09-28T00:39:31.622Z,8.95
2022-09-28T00:42:00.104Z,8.52
2022-09-28T00:44:46.905Z,8.25
2022-09-28T00:47:39.052Z,8.23
2022-09-28T00:50:10.257Z,8.70
2022-09-28T00:52:42.186Z,8.20
2022-09-28T00:55:13.324Z,8.73
2022-09-28T00:57:42.809Z,8.80
2022-09-28T01:00:11.843Z,8.80
2022-09-28T01:02:39.442Z,8.20
2022-09-28T01:05:08.905Z,8.90
2022-09-28T01:07:36.829Z,7.05
2022-09-28T01:10:06.894Z,8.90
2022-09-28T01:12:34.547Z,8.55
2022-09-28T01:15:02.505Z,8.70
2022-09-28T01:17:37.605Z,9.65
2022-09-28T01:20:27.966Z,8.60
2022-09-28T01:23:51.166Z,9.15
2022-09-28T01:26:58.196Z,8.55
2022-09-28T01:29:36.012Z,8.52
2022-09-28T01:32:12.313Z,8.45
2022-09-28T01:34:46.290Z,9.15
2022-09-28T01:37:16.272Z,8.63
2022-09-28T01:39:46.949Z,10.38
2022-09-28T01:42:18.790Z,9.77
2022-09-28T01:44:50.533Z,10.68
2022-09-28T01:47:21.755Z,10.85
2022-09-28T01:49:52.893Z,11.23
2022-09-28T01:52:23.540Z,11.73
2022-09-28T01:54:56.206Z,10.60
2022-09-28T01:57:26.915Z,11.98
2022-09-28T01:59:59.806Z,11.90
2022-09-28T02:02:32.457Z,12.20
2022-09-28T02:05:04.372Z,11.80
2022-09-28T02:07:38.045Z,12.00
2022-09-28T02:10:10.376Z,11.90
2022-09-28T02:12:41.701Z,11.65
2022-09-28T02:15:15.375Z,11.65
2022-09-28T02:17:43.327Z,11.02
2022-09-28T02:20:11.936Z,12.18
2022-09-28T02:22:42.976Z,12.35
2022-09-28T02:25:13.001Z,11.77
2022-09-28T02:27:43.825Z,11.48
2022-09-28T02:30:13.406Z,11.88
2022-09-28T02:32:43.593Z,11.60
2022-09-28T02:35:15.805Z,11.95
2022-09-28T02:37:43.551Z,12.80
2022-09-28T02:40:14.951Z,11.90
2022-09-28T02:42:51.743Z,12.35
2022-09-28T02:45:28.980Z,12.50
2022-09-28T02:48:04.428Z,13.15
2022-09-28T02:50:38.478Z,12.75
2022-09-28T02:53:23.200Z,13.25
2022-09-28T02:56:01.303Z,12.45
2022-09-28T02:58:36.807Z,12.55
2022-09-28T03:01:13.637Z,13.73
2022-09-28T03:03:48.122Z,13.02
2022-09-28T03:06:21.529Z,12.98
2022-09-28T03:08:54.043Z,14.52
2022-09-28T03:11:24.426Z,13.90
2022-09-28T03:13:52.283Z,13.68
2022-09-28T03:16:21.460Z,14.35
2022-09-28T03:18:49.355Z,13.93
2022-09-28T03:21:17.354Z,13.82
2022-09-28T03:23:45.129Z,13.85
2022-09-28T03:26:13.702Z,13.57
2022-09-28T03:28:41.854Z,13.85
2022-09-28T03:31:09.799Z,14.43
2022-09-28T03:33:38.935Z,14.55
2022-09-28T03:36:08.626Z,14.95
2022-09-28T03:38:36.409Z,14.27
2022-09-28T03:41:04.262Z,15.05
2022-09-28T03:43:32.008Z,14.77
2022-09-28T03:46:01.352Z,17.35
2022-09-28T03:48:32.708Z,15.80
2022-09-28T03:51:03.463Z,17.02
2022-09-28T03:53:31.480Z,17.73
2022-09-28T03:56:03.836Z,16.42
2022-09-28T03:58:31.550Z,17.42
2022-09-28T04:01:03.344Z,16.42
2022-09-28T04:03:31.185Z,17.50
2022-09-28T04:05:59.337Z,16.77
2022-09-28T04:08:29.182Z,16.42
2022-09-28T04:10:57.573Z,16.25
2022-09-28T04:13:25.598Z,15.38
2022-09-28T04:15:54.012Z,16.00
2022-09-28T04:18:22.083Z,14.50
2022-09-28T04:20:49.761Z,14.73
2022-09-28T04:23:17.529Z,14.98
2022-09-28T04:25:53.450Z,13.18
2022-09-28T04:28:38.496Z,13.80
2022-09-28T04:31:10.154Z,14.18
2022-09-28T04:33:37.871Z,13.70
2022-09-28T04:36:06.034Z,14.10
2022-09-28T04:38:51.908Z,13.30
2022-09-28T04:41:22.850Z,13.27
2022-09-28T04:43:50.714Z,14.05
2022-09-28T04:46:18.478Z,12.93
2022-09-28T04:48:46.477Z,13.75
2022-09-28T04:51:14.277Z,14.32
2022-09-28T04:53:41.934Z,14.75
2022-09-28T04:56:12.134Z,14.45
2022-09-28T04:58:41.442Z,14.00
2022-09-28T05:01:12.499Z,13.45
2022-09-28T05:03:40.247Z,14.30
2022-09-28T05:06:08.246Z,14.02
2022-09-28T05:08:36.501Z,14.07
2022-09-28T05:11:05.760Z,14.13
2022-09-28T05:13:35.616Z,13.63
2022-09-28T05:16:05.733Z,14.27
2022-09-28T05:18:33.729Z,14.30
2022-09-28T05:21:01.973Z,14.40
2022-09-28T05:23:29.707Z,14.20
2022-09-28T05:25:57.365Z,13.77
2022-09-28T05:28:28.402Z,14.10
2022-09-28T05:30:59.862Z,13.43
2022-09-28T05:33:29.543Z,13.57
2022-09-28T05:36:01.102Z,12.40
2022-09-28T05:38:29.857Z,13.25
2022-09-28T05:40:57.967Z,12.70
2022-09-28T05:43:25.708Z,12.85
2022-09-28T05:45:55.819Z,13.25
2022-09-28T05:48:23.880Z,13.73
2022-09-28T05:50:54.045Z,13.30
2022-09-28T05:53:21.797Z,13.02
2022-09-28T05:55:49.495Z,12.50
2022-09-28T05:58:17.487Z,13.00
2022-09-28T06:00:45.292Z,12.70
2022-09-28T06:03:14.862Z,13.18
2022-09-28T06:05:42.754Z,13.35
2022-09-28T06:08:11.985Z,12.48
2022-09-28T06:10:40.229Z,13.23
2022-09-28T06:13:08.496Z,13.38
2022-09-28T06:15:37.886Z,13.52
2022-09-28T06:18:06.838Z,13.00
2022-09-28T06:20:36.517Z,12.77
2022-09-28T06:23:04.549Z,12.73
2022-09-28T06:25:33.614Z,13.85
2022-09-28T06:28:02.466Z,13.45
2022-09-28T06:30:33.483Z,13.25
2022-09-28T06:33:02.284Z,13.20
2022-09-28T06:35:31.594Z,13.15
2022-09-28T06:37:59.806Z,13.38
2022-09-28T06:40:28.001Z,13.68
2022-09-28T06:42:58.299Z,13.77
2022-09-28T06:45:26.544Z,14.00
2022-09-28T06:47:56.594Z,12.77
2022-09-28T06:50:24.795Z,13.27
2022-09-28T06:52:53.860Z,13.43
2022-09-28T06:55:21.814Z,13.27
2022-09-28T06:58:00.171Z,13.88
2022-09-28T07:00:28.792Z,13.25
2022-09-28T07:02:56.518Z,13.10
2022-09-28T07:05:27.253Z,11.90
2022-09-28T07:07:56.452Z,13.13
2022-09-28T07:10:24.748Z,11.23
2022-09-28T07:12:52.894Z,12.13
2022-09-28T07:15:22.658Z,11.00
2022-09-28T07:17:59.678Z,12.00
2022-09-28T07:20:30.415Z,12.40
2022-09-28T07:23:08.817Z,12.18
2022-09-28T07:25:45.443Z,11.13
2022-09-28T07:28:13.322Z,11.80
2022-09-28T07:30:44.255Z,11.60
2022-09-28T07:33:14.519Z,11.45
2022-09-28T07:35:43.007Z,11.88
2022-09-28T07:38:12.361Z,12.40
2022-09-28T07:40:57.904Z,12.20
2022-09-28T07:43:25.626Z,11.52
2022-09-28T07:45:55.659Z,11.63
2022-09-28T07:48:23.840Z,12.32
2022-09-28T07:50:52.271Z,11.57
2022-09-28T07:53:20.253Z,12.02
2022-09-28T07:55:52.130Z,11.45
2022-09-28T07:58:20.706Z,11.60
2022-09-28T08:00:49.079Z,10.38
2022-09-28T08:03:18.911Z,10.43
2022-09-28T08:05:47.408Z,11.35
2022-09-28T08:08:15.367Z,11.38
2022-09-28T08:10:46.807Z,10.10
2022-09-28T08:13:16.301Z,10.07
2022-09-28T08:15:44.134Z,9.35
2022-09-28T08:18:11.908Z,8.85
2022-09-28T08:20:58.452Z,9.75
2022-09-28T08:23:26.154Z,10.70
2022-09-28T08:25:55.013Z,10.73
2022-09-28T08:28:23.794Z,10.05
2022-09-28T08:30:51.916Z,9.73
2022-09-28T08:33:21.212Z,9.32
2022-09-28T08:35:57.483Z,9.40
2022-09-28T08:38:25.453Z,10.35
2022-09-28T08:41:01.354Z,9.65
2022-09-28T08:43:54.477Z,10.15
2022-09-28T08:46:27.032Z,9.70
2022-09-28T08:49:20.761Z,8.30
2022-09-28T08:51:51.470Z,8.90
2022-09-28T08:54:27.095Z,8.65
2022-09-28T08:56:56.926Z,9.53
2022-09-28T08:59:26.617Z,7.97
2022-09-28T09:01:58.110Z,8.38
2022-09-28T09:04:25.986Z,7.45
2022-09-28T09:07:07.166Z,7.22
2022-09-28T09:09:44.333Z,7.53
2022-09-28T09:12:18.344Z,7.00
2022-09-28T09:15:08.737Z,6.75
2022-09-28T09:17:43.981Z,5.63
2022-09-28T09:20:20.164Z,5.25
2022-09-28T09:23:00.000Z,6.47
2022-09-28T09:25:29.694Z,5.70
2022-09-28T09:28:12.287Z,6.90
2022-09-28T09:30:45.693Z,6.32
2022-09-28T09:33:38.015Z,5.10
2022-09-28T09:36:14.890Z,4.55
2022-09-28T09:38:51.682Z,5.63
2022-09-28T09:41:27.164Z,6.47
2022-09-28T09:44:22.274Z,6.07
2022-09-28T09:46:53.570Z,5.90
2022-09-28T09:49:23.742Z,5.97
2022-09-28T09:51:54.471Z,5.90
2022-09-28T09:54:26.642Z,6.30
2022-09-28T09:56:57.572Z,6.78
2022-09-28T09:59:28.856Z,6.40
2022-09-28T10:01:57.206Z,7.38
2022-09-28T10:04:27.840Z,4.72
2022-09-28T10:07:00.193Z,7.28
2022-09-28T10:09:31.966Z,7.45
2022-09-28T10:11:59.679Z,7.35
2022-09-28T10:14:27.836Z,6.40
2022-09-28T10:16:58.264Z,7.38
2022-09-28T10:19:31.694Z,6.35
2022-09-28T10:22:01.848Z,7.30
2022-09-28T10:24:34.982Z,6.82
2022-09-28T10:27:07.327Z,5.75
2022-09-28T10:29:43.267Z,4.72
2022-09-28T10:32:23.812Z,3.17
2022-09-28T10:34:52.187Z,4.40
2022-09-28T10:37:20.432Z,4.70
2022-09-28T10:39:52.221Z,3.00
2022-09-28T10:42:22.113Z,3.85
2022-09-28T10:44:55.816Z,3.50
2022-09-28T10:48:26.040Z,2.55
2022-09-28T10:53:59.860Z,2.58
2022-09-28T10:56:29.635Z,3.20
2022-09-28T10:58:57.952Z,2.80
2022-09-28T11:01:29.606Z,3.20
2022-09-28T11:03:58.625Z,3.15
2022-09-28T11:06:28.154Z,3.40
2022-09-28T11:08:59.208Z,3.20
2022-09-28T11:11:27.097Z,2.45
2022-09-28T11:13:56.994Z,2.45
2022-09-28T11:16:28.607Z,2.75
2022-09-28T11:18:56.862Z,2.40
2022-09-28T11:21:26.617Z,1.92
2022-09-28T11:24:06.976Z,2.35
2022-09-28T11:26:40.792Z,1.80
2022-09-28T11:31:03.774Z,2.53
2022-09-28T11:33:34.032Z,1.40
2022-09-28T11:36:27.023Z,1.90
2022-09-28T11:39:00.506Z,1.35
2022-09-28T11:41:43.161Z,1.77
2022-09-28T11:44:33.371Z,1.48
2022-09-28T11:47:14.858Z,1.80
2022-09-28T11:49:46.134Z,1.88
2022-09-28T11:53:54.711Z,0.68
2022-09-28T11:56:32.517Z,0.70
2022-09-28T11:59:03.963Z,0.88
2022-09-28T12:01:36.559Z,0.70
2022-09-28T12:04:07.925Z,0.45
2022-09-28T12:06:40.442Z,0.40
2022-09-28T12:09:23.295Z,0.40
2022-09-28T12:16:37.524Z,0.52
2022-09-28T12:18:50.126Z,0.77
2022-09-28T12:21:32.685Z,0.40
2022-09-28T12:24:04.968Z,0.20
2022-09-28T12:26:37.889Z,0.40
2022-09-28T12:29:11.579Z,0.20
2022-09-28T12:31:45.246Z,0.60
2022-09-28T12:34:13.220Z,0.30
2022-09-28T12:36:47.430Z,0.30
2022-09-28T12:39:46.840Z,0.30
2022-09-28T12:42:29.142Z,0.30
2022-09-28T12:45:10.370Z,0.55
2022-09-28T12:48:11.567Z,0.30
2022-09-28T12:50:52.608Z,0.40
2022-09-28T12:53:38.850Z,0.35
2022-09-28T12:58:21.184Z,0.32
2022-09-28T13:00:53.747Z,0.32
2022-09-28T13:03:37.126Z,0.35
